Time;durP1;ratioP1;P1;durP2;ratioP2;P2;SDS_P1;SDS_P2;PMS_P1;PMS_P2;Temp;Humidity;BMP_temperature;BMP_pressure;BME280_temperature;BME280_humidity;BME280_pressure;Samples;Min_cycle;Max_cycle;Signal;HPM_P1;HPM_P2
2021/01/12 00:00:25;;;;;;;6.95;2.20;;;8.40;92.60;;;;;;5093388;28;20034;-62
2021/01/12 00:02:51;;;;;;;9.13;2.28;;;8.30;92.60;;;;;;5094137;28;20077;-62
2021/01/12 00:05:18;;;;;;;5.25;2.33;;;8.40;92.60;;;;;;5094176;28;20067;-62
2021/01/12 00:07:43;;;;;;;9.57;2.88;;;8.40;92.60;;;;;;5092970;28;20047;-62
2021/01/12 00:10:10;;;;;;;6.97;2.53;;;8.40;92.60;;;;;;5093880;28;20551;-62
2021/01/12 00:12:35;;;;;;;6.03;2.38;;;8.40;92.60;;;;;;5093860;28;20379;-62
2021/01/12 00:15:04;;;;;;;5.85;2.40;;;8.40;92.60;;;;;;5092821;28;20024;-62
2021/01/12 00:17:30;;;;;;;6.60;2.47;;;8.40;92.90;;;;;;5093231;28;20032;-62
2021/01/12 00:19:55;;;;;;;5.65;2.28;;;8.40;92.60;;;;;;5093694;28;20043;-62
2021/01/12 00:22:21;;;;;;;10.35;2.40;;;8.40;92.60;;;;;;5093173;28;20051;-62
2021/01/12 00:24:48;;;;;;;6.70;2.38;;;8.40;92.60;;;;;;5093486;28;20043;-62
2021/01/12 00:27:16;;;;;;;5.18;2.17;;;8.40;92.50;;;;;;5092890;28;20123;-62
2021/01/12 00:29:43;;;;;;;8.98;2.45;;;8.50;92.50;;;;;;5093862;28;20379;-62
2021/01/12 00:32:19;;;;;;;5.68;2.30;;;8.40;92.50;;;;;;5093321;28;20483;-62
2021/01/12 00:34:45;;;;;;;8.85;2.95;;;8.40;92.60;;;;;;5092857;28;20028;-62
2021/01/12 00:37:11;;;;;;;8.32;2.58;;;8.50;92.60;;;;;;5093799;28;20054;-62
2021/01/12 00:39:37;;;;;;;10.13;2.95;;;8.50;92.60;;;;;;5093439;28;20035;-62
2021/01/12 00:42:03;;;;;;;9.52;3.30;;;8.50;92.60;;;;;;5092685;28;20036;-62
2021/01/12 00:44:29;;;;;;;7.80;2.35;;;8.50;92.70;;;;;;5093492;28;20112;-62
2021/01/12 00:46:55;;;;;;;8.05;2.50;;;8.50;92.70;;;;;;5093092;28;20174;-62
2021/01/12 00:49:23;;;;;;;8.15;2.70;;;8.50;92.80;;;;;;5092765;28;20032;-62
2021/01/12 00:51:48;;;;;;;8.57;3.60;;;8.50;92.80;;;;;;5093393;28;20063;-62
2021/01/12 00:54:17;;;;;;;8.95;2.55;;;8.50;92.90;;;;;;5093038;28;20051;-62
2021/01/12 00:56:43;;;;;;;8.95;3.20;;;8.50;92.80;;;;;;5092636;28;20059;-62
2021/01/12 00:59:09;;;;;;;12.60;3.40;;;8.50;92.80;;;;;;5093169;28;20020;-62
2021/01/12 01:01:36;;;;;;;8.95;3.33;;;8.50;92.80;;;;;;5091636;28;20058;-62
2021/01/12 01:04:02;;;;;;;11.48;3.15;;;8.50;92.90;;;;;;5092353;28;20025;-62
2021/01/12 01:06:28;;;;;;;9.50;2.95;;;8.50;92.90;;;;;;5092938;28;20040;-62
2021/01/12 01:08:53;;;;;;;7.55;2.63;;;8.50;92.90;;;;;;5092995;28;20368;-62
2021/01/12 01:11:20;;;;;;;10.13;3.45;;;8.50;92.90;;;;;;5092110;28;20031;-62
2021/01/12 01:13:46;;;;;;;5.97;2.10;;;8.50;92.80;;;;;;5093140;28;20035;-62
2021/01/12 01:16:12;;;;;;;9.93;3.20;;;8.60;92.80;;;;;;5092845;28;20499;-62
2021/01/12 01:18:38;;;;;;;9.10;2.78;;;8.60;92.80;;;;;;5092021;28;20024;-62
2021/01/12 01:21:04;;;;;;;6.97;3.08;;;8.60;93.00;;;;;;5092878;28;20047;-62
2021/01/12 01:23:29;;;;;;;15.45;3.35;;;8.60;92.70;;;;;;5091747;28;20114;-62
2021/01/12 01:25:56;;;;;;;2.90;1.73;;;8.60;92.70;;;;;;5092904;28;20181;-62
2021/01/12 01:28:23;;;;;;;6.28;2.65;;;8.70;92.70;;;;;;5097267;28;20032;-62
2021/01/12 01:30:49;;;;;;;8.45;2.65;;;8.60;92.70;;;;;;5098761;28;20865;-62
2021/01/12 01:33:15;;;;;;;3.85;2.20;;;8.70;92.60;;;;;;5099267;28;20146;-62
2021/01/12 01:35:44;;;;;;;8.25;2.78;;;8.70;92.60;;;;;;5099482;28;20063;-62
2021/01/12 01:38:10;;;;;;;9.65;3.10;;;8.70;92.60;;;;;;5098755;28;20028;-62
2021/01/12 01:40:36;;;;;;;9.95;2.65;;;8.70;92.60;;;;;;5099286;28;20471;-62
2021/01/12 01:43:03;;;;;;;7.20;2.17;;;8.70;92.50;;;;;;5099528;28;20395;-62
2021/01/12 01:45:28;;;;;;;5.13;2.47;;;8.70;92.60;;;;;;5098382;28;20475;-62
2021/01/12 01:47:55;;;;;;;8.32;2.95;;;8.70;92.50;;;;;;5099384;28;20081;-62
2021/01/12 01:50:23;;;;;;;5.88;2.25;;;8.70;92.50;;;;;;5099099;28;20126;-62
2021/01/12 01:52:56;;;;;;;10.57;2.60;;;8.70;92.50;;;;;;5098597;28;20371;-62
2021/01/12 01:55:23;;;;;;;7.60;2.13;;;8.70;92.50;;;;;;5099150;28;20089;-62
2021/01/12 01:57:49;;;;;;;5.47;2.30;;;8.80;92.50;;;;;;5099402;28;20020;-62
2021/01/12 02:00:18;;;;;;;4.75;2.08;;;8.80;92.50;;;;;;5098608;28;20080;-62
2021/01/12 02:03:01;;;;;;;5.85;2.20;;;8.80;92.40;;;;;;5099119;28;20032;-62
2021/01/12 02:05:34;;;;;;;13.95;2.35;;;8.80;92.40;;;;;;5097625;28;20059;-62
2021/01/12 02:08:06;;;;;;;8.02;2.30;;;8.80;92.40;;;;;;5097218;28;20769;-62
2021/01/12 02:10:37;;;;;;;5.90;2.28;;;8.90;92.40;;;;;;5099274;28;20035;-62
2021/01/12 02:13:06;;;;;;;6.90;2.17;;;8.90;92.40;;;;;;5112431;28;20100;-62
2021/01/12 02:15:33;;;;;;;5.70;2.15;;;8.80;92.40;;;;;;5098422;28;20089;-62
2021/01/12 02:17:59;;;;;;;5.93;2.58;;;8.90;92.50;;;;;;5099220;28;20062;-62
2021/01/12 02:20:28;;;;;;;5.97;1.85;;;8.90;92.30;;;;;;5098626;28;20062;-62
2021/01/12 02:23:34;;;;;;;7.40;2.13;;;8.90;92.30;;;;;;5099136;28;20032;-62
2021/01/12 02:26:02;;;;;;;7.97;2.15;;;8.90;92.30;;;;;;5095628;28;20051;-62
2021/01/12 02:28:27;;;;;;;1.38;1.27;;;8.90;92.30;;;;;;5098332;28;20051;-62
2021/01/12 02:30:53;;;;;;;3.30;1.77;;;8.90;92.30;;;;;;5098875;28;20070;-62
2021/01/12 02:33:19;;;;;;;3.83;1.58;;;8.90;92.20;;;;;;5098952;28;20063;-62
2021/01/12 02:35:47;;;;;;;2.67;1.13;;;8.90;92.30;;;;;;5098091;28;20024;-62
2021/01/12 02:38:14;;;;;;;5.28;1.77;;;8.90;92.20;;;;;;5098948;28;20107;-62
2021/01/12 02:40:39;;;;;;;5.40;1.33;;;9.00;92.50;;;;;;5094822;28;20028;-62
2021/01/12 02:43:05;;;;;;;3.25;1.67;;;9.00;92.10;;;;;;5094606;28;20468;-62
2021/01/12 02:45:31;;;;;;;4.60;1.85;;;9.00;92.10;;;;;;5101290;28;20047;-61
2021/01/12 02:47:57;;;;;;;5.45;1.95;;;9.00;92.10;;;;;;5095010;28;20031;-62
2021/01/12 02:50:23;;;;;;;5.18;1.77;;;9.00;92.00;;;;;;5098685;28;20062;-62
2021/01/12 02:52:49;;;;;;;2.72;1.05;;;9.00;92.00;;;;;;5110525;28;20053;-62
2021/01/12 02:55:15;;;;;;;1.98;1.50;;;9.10;92.00;;;;;;5095382;28;20032;-62
2021/01/12 02:57:41;;;;;;;2.78;1.30;;;9.10;92.00;;;;;;5109049;28;20028;-62
2021/01/12 03:00:10;;;;;;;4.18;1.90;;;9.00;92.00;;;;;;5096674;28;20472;-62
2021/01/12 03:02:36;;;;;;;4.40;2.20;;;9.00;92.00;;;;;;5094947;28;20483;-62
2021/01/12 03:05:03;;;;;;;7.03;1.80;;;9.10;92.00;;;;;;5106473;28;20429;-62
2021/01/12 03:07:29;;;;;;;4.60;1.48;;;9.00;92.00;;;;;;5114933;28;20042;-62
2021/01/12 03:09:54;;;;;;;5.80;1.80;;;9.00;92.00;;;;;;5105332;28;20103;-62
2021/01/12 03:12:20;;;;;;;3.03;1.40;;;9.10;92.00;;;;;;5095022;28;20032;-62
2021/01/12 03:14:46;;;;;;;5.13;2.22;;;9.10;92.00;;;;;;5095231;28;20094;-62
2021/01/12 03:17:13;;;;;;;1.50;1.27;;;9.10;91.90;;;;;;5094601;28;20028;-62
2021/01/12 03:19:39;;;;;;;5.95;1.70;;;9.10;91.90;;;;;;5094982;28;20028;-62
2021/01/12 03:22:05;;;;;;;4.13;1.92;;;9.10;91.90;;;;;;5106112;28;20405;-62
2021/01/12 03:24:31;;;;;;;5.25;1.80;;;9.10;91.90;;;;;;5111650;28;20024;-62
2021/01/12 03:26:56;;;;;;;1.98;1.63;;;9.10;91.90;;;;;;5095195;28;20090;-62
2021/01/12 03:29:22;;;;;;;4.13;1.70;;;9.10;92.00;;;;;;5093782;28;20028;-62
2021/01/12 03:31:48;;;;;;;5.55;2.17;;;9.10;92.20;;;;;;5094079;28;20135;-62
2021/01/12 03:34:14;;;;;;;4.32;1.88;;;9.10;92.00;;;;;;5094590;28;20024;-62
2021/01/12 03:36:40;;;;;;;5.43;1.88;;;9.10;92.00;;;;;;5094430;28;20028;-62
2021/01/12 03:39:06;;;;;;;4.78;1.45;;;9.10;92.00;;;;;;5094137;28;20020;-62
2021/01/12 03:41:32;;;;;;;1.42;0.90;;;9.10;92.00;;;;;;5094339;28;20396;-62
2021/01/12 03:43:58;;;;;;;8.68;1.27;;;9.10;92.00;;;;;;5094480;28;20024;-62
2021/01/12 03:46:24;;;;;;;3.00;1.58;;;9.10;92.10;;;;;;5093524;28;20044;-62
2021/01/12 03:48:49;;;;;;;6.43;1.88;;;9.20;92.10;;;;;;5094642;28;20020;-62
2021/01/12 03:51:15;;;;;;;5.38;1.30;;;9.20;92.10;;;;;;5092312;28;20032;-62
2021/01/12 03:53:40;;;;;;;3.53;1.00;;;9.30;91.90;;;;;;5093971;28;20028;-62
2021/01/12 03:56:06;;;;;;;4.85;1.02;;;9.40;91.90;;;;;;5107665;28;20036;-62
2021/01/12 03:58:32;;;;;;;1.17;0.40;;;9.50;91.70;;;;;;5108471;28;20073;-62
2021/01/12 04:00:58;;;;;;;3.55;0.90;;;9.60;91.60;;;;;;5105571;28;20039;-62
2021/01/12 04:03:23;;;;;;;3.47;1.27;;;9.70;91.40;;;;;;5102954;28;20058;-63
2021/01/12 04:05:51;;;;;;;3.35;0.55;;;9.70;91.20;;;;;;5107332;28;20035;-62
2021/01/12 04:08:17;;;;;;;5.50;0.93;;;9.80;91.10;;;;;;5109891;28;20059;-62
2021/01/12 04:10:43;;;;;;;5.07;0.73;;;9.90;90.90;;;;;;5098759;28;20118;-62
2021/01/12 04:13:08;;;;;;;6.32;1.20;;;9.90;90.80;;;;;;5096426;28;20459;-62
2021/01/12 04:15:34;;;;;;;4.30;0.77;;;9.90;90.60;;;;;;5099976;28;20030;-62
2021/01/12 04:18:00;;;;;;;6.78;0.90;;;10.00;90.60;;;;;;5097020;28;20057;-62
2021/01/12 04:20:25;;;;;;;4.95;1.15;;;10.00;90.40;;;;;;5099107;28;20486;-62
2021/01/12 04:22:51;;;;;;;7.35;1.33;;;10.10;90.30;;;;;;5097037;28;20052;-62
2021/01/12 04:25:18;;;;;;;6.18;0.95;;;10.00;90.20;;;;;;5098131;28;20528;-62
2021/01/12 04:27:44;;;;;;;5.72;1.08;;;10.10;90.10;;;;;;5097409;28;20036;-62
2021/01/12 04:30:10;;;;;;;5.00;1.13;;;10.10;90.00;;;;;;5096783;28;20073;-62
2021/01/12 04:32:36;;;;;;;4.88;0.85;;;10.10;90.00;;;;;;5099395;28;20047;-62
2021/01/12 04:35:02;;;;;;;1.77;0.90;;;10.10;89.80;;;;;;5095896;28;20126;-62
2021/01/12 04:37:28;;;;;;;7.32;1.58;;;10.20;89.80;;;;;;5099268;28;20470;-62
2021/01/12 04:39:53;;;;;;;4.90;0.98;;;10.20;89.50;;;;;;5096522;28;20035;-62
2021/01/12 04:42:19;;;;;;;5.05;1.20;;;10.20;89.50;;;;;;5097421;28;20020;-63
2021/01/12 04:44:45;;;;;;;6.47;1.52;;;10.30;89.40;;;;;;5097617;28;20115;-62
2021/01/12 04:47:10;;;;;;;4.55;0.90;;;10.20;89.20;;;;;;5096250;28;20036;-62
2021/01/12 04:49:36;;;;;;;10.23;0.90;;;10.30;89.20;;;;;;5098407;28;20029;-63
2021/01/12 04:52:02;;;;;;;7.53;0.77;;;10.30;89.10;;;;;;5096497;28;20073;-62
2021/01/12 04:54:35;;;;;;;6.70;0.80;;;10.30;88.90;;;;;;5095588;28;20424;-63
2021/01/12 04:57:03;;;;;;;3.53;0.75;;;10.30;88.80;;;;;;5107456;28;20028;-62
2021/01/12 04:59:34;;;;;;;5.30;0.93;;;10.30;88.80;;;;;;5093040;28;20032;-62
2021/01/12 05:02:00;;;;;;;7.60;1.15;;;10.30;88.60;;;;;;5092900;28;20040;-62
2021/01/12 05:04:26;;;;;;;3.40;0.90;;;10.30;88.40;;;;;;5093258;28;20034;-62
2021/01/12 05:06:56;;;;;;;3.30;1.02;;;10.30;88.20;;;;;;5092999;28;20032;-62
2021/01/12 05:09:22;;;;;;;4.78;0.93;;;10.30;88.00;;;;;;5092126;28;20028;-62
2021/01/12 05:11:48;;;;;;;10.18;1.50;;;10.30;87.80;;;;;;5092952;28;20097;-62
2021/01/12 05:14:16;;;;;;;4.13;1.10;;;10.30;87.50;;;;;;5092473;28;20043;-62
2021/01/12 05:16:50;;;;;;;10.10;1.33;;;10.30;87.40;;;;;;5093427;28;20046;-62
2021/01/12 05:19:29;;;;;;;7.60;2.03;;;10.20;87.00;;;;;;5092708;28;20463;-62
2021/01/12 05:22:17;;;;;;;8.27;1.00;;;10.20;86.70;;;;;;5092994;28;20073;-62
2021/01/12 05:24:45;;;;;;;11.38;1.75;;;10.20;86.70;;;;;;5092141;28;20487;-62
2021/01/12 05:27:11;;;;;;;5.80;1.27;;;10.20;86.50;;;;;;5092546;28;20043;-62
2021/01/12 05:29:41;;;;;;;3.00;1.20;;;10.20;87.00;;;;;;5106976;28;20031;-62
2021/01/12 05:32:10;;;;;;;4.82;1.10;;;10.20;86.10;;;;;;5092707;28;20052;-63
2021/01/12 05:34:38;;;;;;;6.85;1.52;;;10.10;86.00;;;;;;5092601;28;20031;-62
2021/01/12 05:37:05;;;;;;;3.30;1.20;;;10.20;85.80;;;;;;5092013;28;20032;-63
2021/01/12 05:39:39;;;;;;;6.50;1.17;;;10.10;85.40;;;;;;5092393;28;20024;-62
2021/01/12 05:42:08;;;;;;;5.85;1.05;;;10.10;85.10;;;;;;5092694;28;20058;-63
2021/01/12 05:44:39;;;;;;;6.80;1.38;;;10.10;85.10;;;;;;5091819;28;20055;-62
2021/01/12 05:47:05;;;;;;;15.18;1.70;;;10.10;84.90;;;;;;5092570;28;20507;-63
2021/01/12 05:49:31;;;;;;;6.90;1.23;;;10.10;84.80;;;;;;5092579;28;20024;-62
2021/01/12 05:51:57;;;;;;;6.43;1.58;;;10.10;84.70;;;;;;5091992;28;20070;-62
2021/01/12 05:54:26;;;;;;;8.80;1.35;;;10.10;84.60;;;;;;5092505;28;20032;-62
2021/01/12 05:56:56;;;;;;;5.47;1.42;;;10.10;84.60;;;;;;5106933;28;20031;-62
2021/01/12 05:59:30;;;;;;;4.53;1.15;;;10.10;84.50;;;;;;5091992;28;20036;-62
2021/01/12 06:01:57;;;;;;;11.93;1.90;;;10.10;84.40;;;;;;5092498;28;20326;-63
2021/01/12 06:04:24;;;;;;;5.57;1.30;;;10.10;84.30;;;;;;5092523;28;20028;-63
2021/01/12 06:06:54;;;;;;;6.53;1.52;;;10.10;84.30;;;;;;5091528;28;20074;-63
2021/01/12 06:09:22;;;;;;;5.93;1.13;;;10.10;84.20;;;;;;5094391;28;20029;-62
2021/01/12 06:11:53;;;;;;;15.55;1.90;;;10.10;84.20;;;;;;5107336;28;20036;-62
2021/01/12 06:14:27;;;;;;;8.13;1.17;;;10.10;84.20;;;;;;5102550;28;20487;-62
2021/01/12 06:16:54;;;;;;;10.23;1.95;;;10.10;84.10;;;;;;5111285;28;20034;-63
2021/01/12 06:19:30;;;;;;;8.75;1.75;;;10.10;84.10;;;;;;5103719;28;20028;-63
2021/01/12 06:22:04;;;;;;;7.57;1.77;;;10.10;84.10;;;;;;5107841;28;20031;-62
2021/01/12 06:24:38;;;;;;;10.95;1.52;;;10.10;84.00;;;;;;5102820;28;20024;-64
2021/01/12 06:27:16;;;;;;;11.55;1.70;;;10.10;83.90;;;;;;5107060;28;20503;-61
2021/01/12 06:29:47;;;;;;;9.93;2.00;;;10.20;83.90;;;;;;5095915;28;20028;-62
2021/01/12 06:32:32;;;;;;;12.65;1.95;;;10.10;83.70;;;;;;5110022;28;20056;-62
2021/01/12 06:35:08;;;;;;;6.05;1.60;;;10.10;83.80;;;;;;5110199;28;20053;-62
2021/01/12 06:37:40;;;;;;;6.63;1.40;;;10.10;83.70;;;;;;5111895;28;20032;-62
2021/01/12 06:40:11;;;;;;;4.35;1.33;;;10.10;83.70;;;;;;5112170;28;20034;-62
2021/01/12 06:42:38;;;;;;;15.60;1.80;;;10.00;83.60;;;;;;5110087;28;20032;-63
2021/01/12 06:45:06;;;;;;;9.27;1.65;;;10.00;83.60;;;;;;5111245;28;20037;-63
2021/01/12 06:47:33;;;;;;;18.00;2.05;;;10.00;83.60;;;;;;5112011;28;20034;-62
2021/01/12 06:50:25;;;;;;;8.80;1.20;;;9.90;83.30;;;;;;5111348;28;20034;-62
2021/01/12 06:52:51;;;;;;;11.50;1.70;;;9.90;83.50;;;;;;5105030;28;20031;-62
2021/01/12 06:55:18;;;;;;;4.45;0.80;;;9.90;83.40;;;;;;5110269;28;20383;-64
2021/01/12 06:57:51;;;;;;;13.82;2.00;;;9.90;83.50;;;;;;5113582;28;20034;-69
2021/01/12 07:00:19;;;;;;;8.50;1.98;;;9.80;83.30;;;;;;5108125;28;20114;-63
2021/01/12 07:02:55;;;;;;;5.85;1.42;;;9.80;83.40;;;;;;5102395;28;20120;-62
2021/01/12 07:05:21;;;;;;;15.60;1.63;;;9.80;83.20;;;;;;5112208;28;20089;-62
2021/01/12 07:07:49;;;;;;;6.30;1.42;;;9.70;82.90;;;;;;5113278;28;20530;-62
2021/01/12 07:10:15;;;;;;;8.43;1.33;;;9.70;82.70;;;;;;5111376;28;20073;-64
2021/01/12 07:12:42;;;;;;;6.32;1.45;;;9.60;83.00;;;;;;5112363;28;20556;-62
2021/01/12 07:15:14;;;;;;;7.35;0.95;;;9.60;82.20;;;;;;5112866;28;20464;-62
2021/01/12 07:17:48;;;;;;;12.88;1.95;;;9.60;81.90;;;;;;5113551;28;20039;-63
2021/01/12 07:20:23;;;;;;;;;;;9.60;81.20;;;;;;5112294;28;20422;-63
2021/01/12 07:22:56;;;;;;;7.85;0.93;;;9.50;82.00;;;;;;5109329;28;19912;-63
2021/01/12 07:25:45;;;;;;;4.50;0.90;;;9.50;81.40;;;;;;5111945;28;20032;-62
2021/01/12 07:28:14;;;;;;;6.95;1.23;;;9.50;81.40;;;;;;5101353;28;20031;-62
2021/01/12 07:30:41;;;;;;;4.38;1.10;;;9.50;80.90;;;;;;5108334;28;20020;-63
2021/01/12 07:33:08;;;;;;;6.55;0.88;;;9.50;80.80;;;;;;5108911;28;20027;-63
2021/01/12 07:35:36;;;;;;;3.40;0.70;;;9.50;80.70;;;;;;5111191;27;20035;-63
2021/01/12 07:38:03;;;;;;;13.80;1.40;;;9.50;80.60;;;;;;5110166;28;20029;-63
2021/01/12 07:40:29;;;;;;;4.00;0.88;;;9.50;80.70;;;;;;5111872;28;20031;-62
2021/01/12 07:42:57;;;;;;;14.07;1.63;;;9.50;80.70;;;;;;5111218;28;20027;-63
2021/01/12 07:45:24;;;;;;;12.95;1.30;;;9.50;80.40;;;;;;5111033;28;20063;-63
2021/01/12 07:47:52;;;;;;;8.68;1.60;;;9.50;80.10;;;;;;5107879;28;20042;-63
2021/01/12 07:50:18;;;;;;;4.65;1.30;;;9.60;80.00;;;;;;5107141;28;20028;-62
2021/01/12 07:52:44;;;;;;;7.18;1.13;;;9.60;80.00;;;;;;5097877;28;20404;-64
2021/01/12 07:55:10;;;;;;;8.43;1.40;;;9.50;79.60;;;;;;5103190;28;20057;-62
2021/01/12 07:57:37;;;;;;;15.27;1.65;;;9.50;79.40;;;;;;5104148;28;20114;-62
2021/01/12 08:00:05;;;;;;;11.35;1.10;;;9.50;79.30;;;;;;5102306;28;20042;-63
2021/01/12 08:02:40;;;;;;;18.77;2.28;;;9.50;79.50;;;;;;5096686;28;20024;-62
2021/01/12 08:05:07;;;;;;;16.27;1.33;;;9.50;79.40;;;;;;5099444;28;20482;-63
2021/01/12 08:07:33;;;;;;;6.57;1.50;;;9.50;79.40;;;;;;5104623;28;20035;-63
2021/01/12 08:09:59;;;;;;;10.77;2.15;;;9.50;79.60;;;;;;5110626;28;20482;-62
2021/01/12 08:12:26;;;;;;;20.40;1.90;;;9.50;79.60;;;;;;5107171;28;20027;-63
2021/01/12 08:14:53;;;;;;;9.18;1.77;;;9.40;79.60;;;;;;5109937;28;20061;-63
2021/01/12 08:17:21;;;;;;;6.60;1.23;;;9.40;79.50;;;;;;5107535;28;20482;-63
2021/01/12 08:19:47;;;;;;;7.82;0.68;;;9.30;79.60;;;;;;5108132;28;20463;-63
2021/01/12 08:22:16;;;;;;;5.53;1.10;;;9.30;80.30;;;;;;5109541;28;20035;-62
2021/01/12 08:24:46;;;;;;;11.35;1.13;;;9.30;80.50;;;;;;5109374;28;20027;-62
2021/01/12 08:27:13;;;;;;;14.88;1.35;;;9.30;80.30;;;;;;5109396;28;20502;-63
2021/01/12 08:29:39;;;;;;;11.07;1.17;;;9.20;79.70;;;;;;5107937;28;20032;-62
2021/01/12 08:32:06;;;;;;;14.43;1.90;;;9.20;79.40;;;;;;5109414;28;20058;-62
2021/01/12 08:34:50;;;;;;;5.68;1.95;;;9.20;78.90;;;;;;5105776;28;20105;-62
2021/01/12 08:37:17;;;;;;;;;;;9.20;78.60;;;;;;5098915;28;20137;-62
2021/01/12 08:39:45;;;;;;;10.70;1.30;;;9.20;78.50;;;;;;5099518;28;19908;-63
2021/01/12 08:42:12;;;;;;;14.73;1.60;;;9.10;78.10;;;;;;5104239;28;20372;-63
2021/01/12 08:44:41;;;;;;;5.20;1.40;;;9.00;78.60;;;;;;5096254;28;20028;-62
2021/01/12 08:47:07;;;;;;;8.35;0.98;;;9.00;78.70;;;;;;5102147;28;20059;-62
2021/01/12 08:49:34;;;;;;;8.40;1.10;;;9.00;78.50;;;;;;5098575;28;20028;-62
2021/01/12 08:52:01;;;;;;;19.73;1.38;;;8.90;78.30;;;;;;5101088;28;20036;-62
2021/01/12 08:54:28;;;;;;;2.15;0.80;;;9.00;78.30;;;;;;5097105;28;20576;-62
2021/01/12 08:56:55;;;;;;;13.35;1.33;;;9.00;78.70;;;;;;5092130;28;20112;-62
2021/01/12 08:59:27;;;;;;;6.50;1.17;;;9.00;78.20;;;;;;5091177;28;20039;-62
2021/01/12 09:01:53;;;;;;;12.45;1.42;;;8.90;78.10;;;;;;5089933;28;20050;-62
2021/01/12 09:04:19;;;;;;;5.25;1.20;;;9.00;78.40;;;;;;5092192;28;20043;-63
2021/01/12 09:06:45;;;;;;;4.95;0.90;;;8.90;78.60;;;;;;5092017;28;20032;-62
2021/01/12 09:09:13;;;;;;;12.18;1.73;;;9.00;78.60;;;;;;5091313;28;20507;-62
2021/01/12 09:11:43;;;;;;;3.15;0.70;;;8.90;78.70;;;;;;5091854;28;20032;-62
2021/01/12 09:14:10;;;;;;;10.88;1.27;;;8.90;78.90;;;;;;5091690;28;20509;-62
2021/01/12 09:16:38;;;;;;;3.15;0.95;;;9.00;79.00;;;;;;5091294;28;20036;-62
2021/01/12 09:19:17;;;;;;;11.45;1.63;;;8.90;79.10;;;;;;5092136;28;20039;-62
2021/01/12 09:21:44;;;;;;;1.95;0.95;;;8.90;79.40;;;;;;5105714;28;20475;-61
2021/01/12 09:24:19;;;;;;;5.40;1.00;;;8.90;81.60;;;;;;5097122;28;20027;-62
2021/01/12 09:26:45;;;;;;;3.83;0.70;;;8.80;79.70;;;;;;5099745;28;20035;-63
2021/01/12 09:29:11;;;;;;;2.20;0.47;;;8.80;80.10;;;;;;5107123;28;20020;-62
2021/01/12 09:31:47;;;;;;;8.52;0.85;;;8.70;79.30;;;;;;5110423;28;20070;-62
2021/01/12 09:34:21;;;;;;;3.38;0.85;;;8.70;77.40;;;;;;5108845;28;20051;-62
2021/01/12 09:36:46;;;;;;;9.32;1.23;;;8.70;77.00;;;;;;5109829;28;20032;-62
2021/01/12 09:39:12;;;;;;;5.25;0.80;;;8.60;77.20;;;;;;5109472;28;20043;-61
2021/01/12 09:41:39;;;;;;;1.48;0.70;;;8.60;75.60;;;;;;5110064;28;20039;-62
2021/01/12 09:44:06;;;;;;;4.60;0.63;;;8.60;75.50;;;;;;5109564;28;20039;-62
2021/01/12 09:46:32;;;;;;;2.03;0.50;;;8.60;74.20;;;;;;5105406;28;20131;-62
2021/01/12 09:48:58;;;;;;;3.78;0.73;;;8.60;75.00;;;;;;5104639;28;20107;-62
2021/01/12 09:51:24;;;;;;;2.88;0.82;;;8.60;74.10;;;;;;5112773;28;20035;-62
2021/01/12 09:53:50;;;;;;;3.65;0.82;;;8.50;72.90;;;;;;5108578;28;20031;-61
2021/01/12 09:56:17;;;;;;;2.38;0.63;;;8.60;74.10;;;;;;5095855;28;20028;-66
2021/01/12 09:58:48;;;;;;;2.60;0.60;;;8.60;75.20;;;;;;5106109;28;20038;-63
2021/01/12 10:01:15;;;;;;;3.30;0.40;;;8.60;77.30;;;;;;5105901;28;20118;-62
2021/01/12 10:03:40;;;;;;;1.60;0.45;;;8.50;79.10;;;;;;5102212;27;20027;-63
2021/01/12 10:06:06;;;;;;;0.93;0.63;;;8.50;80.20;;;;;;5113244;28;20043;-63
2021/01/12 10:08:32;;;;;;;5.05;0.95;;;8.50;79.60;;;;;;5113495;28;20032;-62
2021/01/12 10:10:58;;;;;;;4.00;1.30;;;8.50;79.80;;;;;;5109299;28;20084;-62
2021/01/12 10:13:24;;;;;;;13.20;1.90;;;8.50;79.60;;;;;;5114658;28;20041;-63
2021/01/12 10:15:50;;;;;;;9.85;1.50;;;8.50;78.30;;;;;;5114248;28;20038;-62
2021/01/12 10:18:16;;;;;;;7.22;1.90;;;8.50;78.10;;;;;;5104228;28;20020;-62
2021/01/12 10:20:42;;;;;;;6.10;1.00;;;8.50;77.60;;;;;;5108486;28;20034;-62
2021/01/12 10:23:08;;;;;;;4.03;0.88;;;8.50;78.50;;;;;;5110525;28;20020;-62
2021/01/12 10:25:34;;;;;;;6.55;1.20;;;8.50;79.60;;;;;;5110374;28;20065;-62
2021/01/12 10:28:00;;;;;;;14.25;1.15;;;8.60;80.30;;;;;;5108403;28;20036;-62
2021/01/12 10:30:26;;;;;;;5.57;0.52;;;8.50;80.80;;;;;;5106777;28;20046;-62
2021/01/12 10:32:52;;;;;;;7.65;1.27;;;8.60;81.30;;;;;;5100815;28;20534;-63
2021/01/12 10:35:18;;;;;;;4.30;0.95;;;8.50;81.30;;;;;;5101042;28;20071;-63
2021/01/12 10:37:44;;;;;;;4.60;0.40;;;8.50;81.70;;;;;;5105118;28;20077;-63
2021/01/12 10:40:12;;;;;;;0.30;0.30;;;8.50;82.00;;;;;;5104335;28;20031;-63
2021/01/12 10:42:41;;;;;;;2.53;0.63;;;8.50;82.30;;;;;;5107094;28;20035;-63
2021/01/12 10:45:08;;;;;;;5.70;0.93;;;8.60;82.20;;;;;;5103329;28;20459;-63
2021/01/12 10:47:35;;;;;;;0.70;0.35;;;8.50;81.50;;;;;;5107697;28;20051;-62
2021/01/12 10:50:02;;;;;;;9.10;1.42;;;8.50;79.30;;;;;;5102285;28;20115;-63
2021/01/12 10:52:32;;;;;;;10.05;0.88;;;8.50;77.10;;;;;;5100519;28;20058;-62
2021/01/12 10:54:57;;;;;;;10.10;0.63;;;8.50;78.50;;;;;;5094471;28;20024;-63
2021/01/12 10:57:23;;;;;;;11.93;1.50;;;8.50;80.50;;;;;;5104166;28;20032;-62
2021/01/12 10:59:49;;;;;;;9.35;1.25;;;8.50;80.60;;;;;;5112576;28;20026;-62
2021/01/12 11:02:15;;;;;;;4.20;0.95;;;8.60;80.60;;;;;;5111444;28;20474;-62
2021/01/12 11:04:41;;;;;;;0.40;0.40;;;8.50;81.50;;;;;;5113028;28;20034;-62
2021/01/12 11:07:07;;;;;;;6.47;0.85;;;8.50;82.30;;;;;;5111673;28;20056;-63
2021/01/12 11:09:32;;;;;;;11.32;1.65;;;8.60;81.50;;;;;;5096449;28;20103;-63
2021/01/12 11:12:04;;;;;;;3.35;1.00;;;8.50;81.00;;;;;;5096775;28;20024;-63
2021/01/12 11:14:30;;;;;;;5.80;0.80;;;8.50;81.00;;;;;;5095046;28;20031;-62
2021/01/12 11:16:56;;;;;;;5.35;0.60;;;8.50;81.00;;;;;;5096106;28;20034;-62
2021/01/12 11:19:22;;;;;;;8.90;1.05;;;8.50;82.80;;;;;;5095733;28;20107;-62
2021/01/12 11:21:49;;;;;;;11.45;1.48;;;8.50;83.20;;;;;;5094573;28;20028;-63
2021/01/12 11:24:19;;;;;;;7.00;1.10;;;8.50;83.30;;;;;;5096670;28;20532;-63
2021/01/12 11:26:47;;;;;;;6.70;1.33;;;8.50;81.50;;;;;;5095274;28;20418;-63
2021/01/12 11:29:13;;;;;;;5.15;0.80;;;8.50;81.60;;;;;;5095937;28;20624;-62
2021/01/12 11:31:40;;;;;;;4.28;1.15;;;8.60;81.60;;;;;;5100641;28;20472;-60
2021/01/12 11:34:07;;;;;;;12.95;1.38;;;8.60;82.40;;;;;;5105198;28;20047;-62
2021/01/12 11:36:39;;;;;;;9.32;1.25;;;8.60;82.60;;;;;;5109422;28;20023;-61
2021/01/12 11:39:09;;;;;;;1.65;1.00;;;8.60;83.10;;;;;;5113063;28;20020;-62
2021/01/12 11:41:36;;;;;;;6.60;1.17;;;8.60;83.60;;;;;;5110654;28;20035;-62
2021/01/12 11:44:02;;;;;;;2.67;0.57;;;8.70;83.00;;;;;;5112721;28;20039;-62
2021/01/12 11:46:32;;;;;;;7.30;1.45;;;8.70;83.70;;;;;;5108010;28;20384;-62
2021/01/12 11:48:59;;;;;;;7.30;1.23;;;8.70;84.20;;;;;;5111457;28;20051;-62
2021/01/12 11:51:38;;;;;;;7.13;1.67;;;8.70;84.30;;;;;;5109643;28;20372;-62
2021/01/12 11:54:05;;;;;;;13.23;1.73;;;8.70;84.00;;;;;;5101679;28;20491;-62
2021/01/12 11:56:31;;;;;;;10.70;2.20;;;8.70;83.60;;;;;;5092398;28;20032;-62
2021/01/12 11:58:57;;;;;;;5.78;1.08;;;8.70;83.70;;;;;;5105524;28;20054;-62
2021/01/12 12:01:22;;;;;;;6.85;1.38;;;8.70;84.50;;;;;;5110163;28;20451;-62
2021/01/12 12:03:48;;;;;;;15.57;1.98;;;8.70;85.40;;;;;;5106790;28;20031;-62
2021/01/12 12:06:14;;;;;;;4.50;1.38;;;8.70;85.40;;;;;;5111177;28;20048;-62
2021/01/12 12:08:40;;;;;;;21.27;2.35;;;8.70;82.50;;;;;;5109486;28;20398;-62
2021/01/12 12:11:05;;;;;;;7.00;1.75;;;8.70;81.30;;;;;;5101044;28;20035;-62
2021/01/12 12:13:36;;;;;;;4.63;1.40;;;8.70;83.30;;;;;;5102943;28;20046;-62
2021/01/12 12:16:02;;;;;;;8.27;1.17;;;8.80;84.00;;;;;;5106874;28;20375;-62
2021/01/12 12:18:28;;;;;;;5.60;1.23;;;8.80;82.30;;;;;;5106539;28;20027;-61
2021/01/12 12:20:54;;;;;;;5.50;1.05;;;8.70;81.60;;;;;;5106691;28;20031;-61
2021/01/12 12:23:19;;;;;;;5.57;1.30;;;8.70;80.40;;;;;;5110355;28;20028;-62
2021/01/12 12:25:45;;;;;;;6.60;0.88;;;8.70;79.80;;;;;;5104093;28;20532;-61
2021/01/12 12:28:10;;;;;;;1.98;0.73;;;8.70;80.40;;;;;;5096208;28;20099;-63
2021/01/12 12:30:36;;;;;;;1.13;0.47;;;8.70;82.60;;;;;;5098145;28;20030;-61
2021/01/12 12:33:02;;;;;;;1.10;0.38;;;8.70;83.10;;;;;;5106774;28;20471;-61
2021/01/12 12:35:27;;;;;;;1.17;0.63;;;8.70;84.30;;;;;;5111499;28;20046;-61
2021/01/12 12:37:53;;;;;;;1.10;0.63;;;8.70;84.90;;;;;;5109860;28;20439;-61
2021/01/12 12:40:19;;;;;;;2.83;0.65;;;8.70;84.90;;;;;;5110901;28;20031;-62
2021/01/12 12:42:44;;;;;;;0.75;0.50;;;8.70;85.30;;;;;;5109195;28;20488;-61
2021/01/12 12:45:10;;;;;;;2.00;0.85;;;8.70;85.30;;;;;;5111682;28;20039;-62
2021/01/12 12:47:36;;;;;;;0.95;0.50;;;8.70;86.00;;;;;;5108387;28;20477;-61
2021/01/12 12:50:03;;;;;;;0.30;0.30;;;8.70;86.30;;;;;;5110103;28;20035;-62
2021/01/12 12:52:29;;;;;;;3.90;0.75;;;8.70;86.40;;;;;;5111545;28;20055;-61
2021/01/12 12:54:55;;;;;;;4.22;0.98;;;8.70;86.60;;;;;;5096233;28;20520;-62